Time;durP1;ratioP1;P1;durP2;ratioP2;P2;SDS_P1;SDS_P2;PMS_P1;PMS_P2;Temp;Humidity;BMP_temperature;BMP_pressure;BME280_temperature;BME280_humidity;BME280_pressure;Samples;Min_cycle;Max_cycle;Signal;HPM_P1;HPM_P2
2022/05/12 00:01:58;;;;;;;1.40;1.30;;;20.60;46.80;;;;;;5058092;28;20932;-61
2022/05/12 00:04:27;;;;;;;1.70;1.60;;;20.60;46.10;;;;;;5059674;28;20238;-61
2022/05/12 00:06:53;;;;;;;2.03;1.50;;;20.60;46.10;;;;;;5058497;28;20470;-60
2022/05/12 00:09:18;;;;;;;1.50;1.40;;;20.60;46.10;;;;;;5057069;28;20474;-60
2022/05/12 00:11:44;;;;;;;1.80;1.70;;;20.60;46.10;;;;;;5063221;28;20301;-61
2022/05/12 00:14:10;;;;;;;1.70;1.60;;;20.60;46.10;;;;;;5060631;28;20222;-61
2022/05/12 00:16:36;;;;;;;2.80;1.30;;;20.60;46.10;;;;;;5060440;28;20229;-61
2022/05/12 00:19:02;;;;;;;1.67;1.40;;;20.60;46.10;;;;;;5061478;28;20987;-60
2022/05/12 00:21:27;;;;;;;1.50;1.40;;;20.60;46.10;;;;;;5059679;28;20250;-60
2022/05/12 00:23:56;;;;;;;1.80;1.70;;;20.60;46.10;;;;;;5059642;28;20267;-60
2022/05/12 00:26:34;;;;;;;1.40;1.30;;;20.60;46.20;;;;;;5057987;28;20222;-61
2022/05/12 00:29:01;;;;;;;1.40;1.30;;;20.60;46.10;;;;;;5056177;28;20451;-60
2022/05/12 00:31:28;;;;;;;1.30;1.20;;;20.60;46.20;;;;;;5055398;28;20444;-60
2022/05/12 00:33:55;;;;;;;1.43;1.33;;;20.60;46.10;;;;;;5058241;28;20475;-60
2022/05/12 00:36:21;;;;;;;2.73;1.30;;;20.60;46.20;;;;;;5063235;28;20451;-60
2022/05/12 00:38:47;;;;;;;1.50;1.40;;;20.60;46.20;;;;;;5061465;28;20541;-61
2022/05/12 00:41:13;;;;;;;1.50;1.40;;;20.60;46.20;;;;;;5058409;28;20498;-61
2022/05/12 00:43:41;;;;;;;2.10;1.57;;;20.60;46.20;;;;;;5063861;28;20229;-60
2022/05/12 00:46:11;;;;;;;1.57;1.47;;;20.60;46.20;;;;;;5061722;28;20687;-61
2022/05/12 00:48:38;;;;;;;1.40;1.30;;;20.60;46.20;;;;;;5058339;28;21400;-61
2022/05/12 00:51:05;;;;;;;1.57;1.47;;;20.60;46.20;;;;;;5055286;28;20447;-60
2022/05/12 00:53:32;;;;;;;1.30;1.20;;;20.60;46.20;;;;;;5058309;28;20597;-62
2022/05/12 00:55:59;;;;;;;2.50;1.40;;;20.60;46.20;;;;;;5055659;28;20443;-60
2022/05/12 00:58:26;;;;;;;1.50;1.40;;;20.60;46.20;;;;;;5062681;28;20433;-61
2022/05/12 01:00:52;;;;;;;1.90;1.53;;;20.60;46.20;;;;;;5056997;28;20479;-61
2022/05/12 01:03:21;;;;;;;1.50;1.40;;;20.60;46.20;;;;;;5057497;28;20496;-61
2022/05/12 01:05:47;;;;;;;1.43;1.33;;;20.60;46.20;;;;;;5057329;28;20678;-61
2022/05/12 01:08:16;;;;;;;1.83;1.30;;;20.60;46.30;;;;;;5054759;28;20513;-60
2022/05/12 01:10:45;;;;;;;1.30;1.20;;;20.60;46.20;;;;;;5094490;28;21104;-61
2022/05/12 01:13:11;;;;;;;1.40;1.30;;;20.60;46.20;;;;;;5058153;28;20444;-61
2022/05/12 01:15:36;;;;;;;1.60;1.33;;;20.60;46.20;;;;;;5062554;28;20458;-61
2022/05/12 01:18:10;;;;;;;1.37;1.27;;;20.60;46.20;;;;;;5059649;28;20245;-61
2022/05/12 01:20:38;;;;;;;1.40;1.30;;;20.60;46.20;;;;;;5059320;28;20214;-61
2022/05/12 01:23:20;;;;;;;1.87;1.30;;;20.60;47.00;;;;;;5068729;28;20418;-61
2022/05/12 01:25:46;;;;;;;1.60;1.50;;;20.60;46.20;;;;;;5067437;28;20425;-61
2022/05/12 01:28:11;;;;;;;1.30;1.20;;;20.60;46.30;;;;;;5067081;28;20454;-62
2022/05/12 01:30:37;;;;;;;1.20;1.10;;;20.60;46.20;;;;;;5063550;28;20359;-61
2022/05/12 01:33:04;;;;;;;1.50;1.40;;;20.60;46.20;;;;;;5062044;28;20685;-60
2022/05/12 01:35:32;;;;;;;1.60;1.50;;;20.60;46.20;;;;;;5066855;28;20679;-61
2022/05/12 01:37:58;;;;;;;1.50;1.40;;;20.60;46.20;;;;;;5062474;28;20514;-61
2022/05/12 01:40:25;;;;;;;1.40;1.30;;;20.60;46.20;;;;;;5061518;28;20639;-61
2022/05/12 01:42:51;;;;;;;1.37;1.27;;;20.60;46.20;;;;;;5064483;28;20481;-61
2022/05/12 01:45:18;;;;;;;1.40;1.30;;;20.60;46.20;;;;;;5059221;28;20458;-62
2022/05/12 01:47:43;;;;;;;1.60;1.50;;;20.60;46.20;;;;;;5066874;28;20447;-61
2022/05/12 01:50:10;;;;;;;1.60;1.50;;;20.60;46.20;;;;;;5070373;28;20463;-61
2022/05/12 01:52:37;;;;;;;1.30;1.20;;;20.60;46.20;;;;;;5063417;28;20261;-60
2022/05/12 01:55:03;;;;;;;1.97;1.40;;;20.60;46.20;;;;;;5070443;28;21009;-62
2022/05/12 01:57:29;;;;;;;1.60;1.50;;;20.60;46.20;;;;;;5064272;28;20433;-60
2022/05/12 01:59:56;;;;;;;1.37;1.27;;;20.60;46.20;;;;;;5066200;28;20924;-61
2022/05/12 02:02:21;;;;;;;2.13;1.33;;;20.60;46.20;;;;;;5062355;28;20237;-60
2022/05/12 02:04:48;;;;;;;2.10;1.47;;;20.60;46.10;;;;;;5062270;28;20453;-61
2022/05/12 02:07:14;;;;;;;1.93;1.33;;;20.60;46.10;;;;;;5063180;28;20248;-60
2022/05/12 02:09:40;;;;;;;1.37;1.27;;;20.60;46.10;;;;;;5068548;28;20925;-61
2022/05/12 02:12:06;;;;;;;1.43;1.33;;;20.60;46.80;;;;;;5063399;28;20455;-61
2022/05/12 02:14:31;;;;;;;1.60;1.50;;;20.60;46.10;;;;;;5062426;28;20770;-61
2022/05/12 02:16:57;;;;;;;1.80;1.70;;;20.60;46.20;;;;;;5059464;28;20226;-61
2022/05/12 02:19:23;;;;;;;1.67;1.57;;;20.60;46.10;;;;;;5064966;28;20221;-60
2022/05/12 02:21:49;;;;;;;1.80;1.70;;;20.60;46.10;;;;;;5064720;28;20291;-60
2022/05/12 02:24:15;;;;;;;1.60;1.50;;;20.60;46.20;;;;;;5062733;28;23955;-61
2022/05/12 02:26:41;;;;;;;1.50;1.40;;;20.60;46.20;;;;;;5065164;28;20229;-60
2022/05/12 02:29:06;;;;;;;1.70;1.60;;;20.60;46.10;;;;;;5062850;28;20218;-61
2022/05/12 02:31:32;;;;;;;1.60;1.50;;;20.60;46.10;;;;;;5069360;28;20511;-62
2022/05/12 02:33:58;;;;;;;1.50;1.40;;;20.60;46.10;;;;;;5053454;28;20261;-61
2022/05/12 02:36:23;;;;;;;1.33;1.23;;;20.60;46.10;;;;;;5062058;28;20253;-61
2022/05/12 02:38:49;;;;;;;1.60;1.50;;;20.60;46.10;;;;;;5062066;28;20317;-60
2022/05/12 02:41:15;;;;;;;1.80;1.57;;;20.60;46.10;;;;;;5067313;28;20214;-60
2022/05/12 02:43:40;;;;;;;1.53;1.43;;;20.60;46.10;;;;;;5062315;28;20455;-60
2022/05/12 02:46:09;;;;;;;1.50;1.40;;;20.60;46.10;;;;;;5061528;28;20230;-61
2022/05/12 02:48:38;;;;;;;1.53;1.43;;;20.60;46.10;;;;;;5060644;28;20248;-61
2022/05/12 02:51:04;;;;;;;2.10;1.60;;;20.60;46.00;;;;;;5057908;28;20447;-61
2022/05/12 02:53:30;;;;;;;1.60;1.50;;;20.50;45.90;;;;;;5062150;28;20491;-60
2022/05/12 02:55:57;;;;;;;1.60;1.50;;;20.60;46.10;;;;;;5061009;28;20254;-61
2022/05/12 02:58:23;;;;;;;1.57;1.47;;;20.60;46.10;;;;;;5064702;28;20458;-61
2022/05/12 03:00:49;;;;;;;1.30;1.20;;;20.60;46.10;;;;;;5058105;28;20455;-61
2022/05/12 03:03:15;;;;;;;1.50;1.40;;;20.60;46.00;;;;;;5062414;28;20297;-61
2022/05/12 03:05:41;;;;;;;1.60;1.50;;;20.60;46.10;;;;;;5057945;28;20925;-61
2022/05/12 03:08:08;;;;;;;1.70;1.60;;;20.60;46.10;;;;;;5062943;28;20224;-61
2022/05/12 03:10:35;;;;;;;1.47;1.37;;;20.60;46.10;;;;;;5067621;28;20446;-61
2022/05/12 03:13:01;;;;;;;2.57;1.60;;;20.60;46.10;;;;;;5062057;28;20443;-60
2022/05/12 03:15:27;;;;;;;1.70;1.60;;;20.60;46.00;;;;;;5061172;28;20504;-61
2022/05/12 03:17:52;;;;;;;1.60;1.50;;;20.60;46.10;;;;;;5061555;28;20469;-61
2022/05/12 03:20:22;;;;;;;1.40;1.30;;;20.60;46.00;;;;;;5060590;28;20421;-61
2022/05/12 03:22:48;;;;;;;1.50;1.40;;;20.60;46.00;;;;;;5063015;28;20233;-61
2022/05/12 03:25:15;;;;;;;1.70;1.60;;;20.60;46.10;;;;;;5059467;28;20462;-62
2022/05/12 03:27:41;;;;;;;1.47;1.37;;;20.60;46.00;;;;;;5059713;28;20455;-60
2022/05/12 03:30:10;;;;;;;1.70;1.53;;;20.60;46.00;;;;;;5058771;28;20454;-61
2022/05/12 03:32:36;;;;;;;2.27;1.40;;;20.60;46.00;;;;;;5063784;28;20218;-62
2022/05/12 03:35:03;;;;;;;1.40;1.30;;;20.60;46.00;;;;;;5061131;28;20442;-61
2022/05/12 03:37:28;;;;;;;1.40;1.30;;;20.50;45.90;;;;;;5058233;28;20461;-60
2022/05/12 03:39:54;;;;;;;1.60;1.50;;;20.50;45.90;;;;;;5061659;28;20456;-60
2022/05/12 03:42:19;;;;;;;1.60;1.50;;;20.50;45.90;;;;;;5061985;28;20226;-61
2022/05/12 03:44:54;;;;;;;1.30;1.20;;;20.50;45.80;;;;;;5061846;28;20244;-61
2022/05/12 03:47:24;;;;;;;1.50;1.40;;;20.50;45.80;;;;;;5062289;28;20222;-61
2022/05/12 03:49:55;;;;;;;1.50;1.40;;;20.60;46.00;;;;;;5058667;28;20451;-61
2022/05/12 03:52:21;;;;;;;1.70;1.50;;;20.50;45.90;;;;;;5059811;28;20943;-61
2022/05/12 03:54:47;;;;;;;1.50;1.40;;;20.60;45.90;;;;;;5059400;28;20450;-60
2022/05/12 03:57:15;;;;;;;1.60;1.50;;;20.50;45.80;;;;;;5064202;28;20586;-61
2022/05/12 03:59:41;;;;;;;1.67;1.57;;;20.50;45.80;;;;;;5062486;28;20442;-61
2022/05/12 04:02:14;;;;;;;1.60;1.50;;;20.50;45.80;;;;;;5058941;28;20547;-62
2022/05/12 04:04:41;;;;;;;1.50;1.40;;;20.50;45.80;;;;;;5059801;28;20439;-60
2022/05/12 04:07:08;;;;;;;1.80;1.60;;;20.50;45.90;;;;;;5061720;28;20491;-61
2022/05/12 04:09:33;;;;;;;1.50;1.40;;;20.50;45.80;;;;;;5059175;28;20451;-61
2022/05/12 04:11:59;;;;;;;1.53;1.43;;;20.50;45.80;;;;;;5058888;28;20482;-60
2022/05/12 04:14:28;;;;;;;1.50;1.40;;;20.50;45.80;;;;;;5058341;28;20221;-60
2022/05/12 04:16:53;;;;;;;1.60;1.50;;;20.50;45.80;;;;;;5061032;28;20231;-60
2022/05/12 04:19:19;;;;;;;1.60;1.50;;;20.50;45.70;;;;;;5059510;28;20487;-60
2022/05/12 04:21:44;;;;;;;1.50;1.40;;;20.50;45.70;;;;;;5064277;28;20237;-60
2022/05/12 04:24:10;;;;;;;3.50;1.70;;;20.50;45.80;;;;;;5060018;28;20292;-60
2022/05/12 04:26:39;;;;;;;1.70;1.60;;;20.50;45.70;;;;;;5057215;28;20218;-60
2022/05/12 04:29:05;;;;;;;1.90;1.80;;;20.50;45.70;;;;;;5059856;28;20226;-61
2022/05/12 04:31:31;;;;;;;1.77;1.67;;;20.50;45.80;;;;;;5060815;28;20430;-60
2022/05/12 04:36:42;;;;;;;1.77;1.67;;;20.50;45.80;;;;;;5057117;28;20465;-62
2022/05/12 04:39:08;;;;;;;1.60;1.50;;;20.50;45.70;;;;;;5056578;28;20463;-62
2022/05/12 04:41:35;;;;;;;1.60;1.50;;;20.50;45.70;;;;;;5053690;28;20443;-63
2022/05/12 04:44:01;;;;;;;1.70;1.60;;;20.50;45.70;;;;;;5062890;28;20497;-63
2022/05/12 04:46:28;;;;;;;1.63;1.53;;;20.50;45.70;;;;;;5059976;28;20461;-61
2022/05/12 04:48:54;;;;;;;1.53;1.43;;;20.50;45.60;;;;;;5057695;28;20526;-60
2022/05/12 04:51:20;;;;;;;1.70;1.60;;;20.50;45.70;;;;;;5062742;28;20439;-61
2022/05/12 04:53:46;;;;;;;1.70;1.60;;;20.50;45.60;;;;;;5058234;28;20458;-61
2022/05/12 04:56:13;;;;;;;1.37;1.27;;;20.50;45.60;;;;;;5059886;28;20488;-61
2022/05/12 04:58:38;;;;;;;1.50;1.40;;;20.50;45.60;;;;;;5060042;28;20520;-61
2022/05/12 05:01:04;;;;;;;1.30;1.20;;;20.50;45.70;;;;;;5061258;28;20415;-62
2022/05/12 05:03:32;;;;;;;1.50;1.40;;;20.60;45.80;;;;;;5060534;28;20294;-61
2022/05/12 05:05:58;;;;;;;1.33;1.23;;;20.50;45.70;;;;;;5057955;28;20276;-61
2022/05/12 05:08:24;;;;;;;1.40;1.30;;;20.50;45.70;;;;;;5064694;28;20451;-63
2022/05/12 05:10:53;;;;;;;1.40;1.30;;;20.50;45.70;;;;;;5057501;28;20516;-63
2022/05/12 05:13:19;;;;;;;1.63;1.30;;;20.50;45.70;;;;;;5060298;28;20229;-61
2022/05/12 05:15:49;;;;;;;1.70;1.60;;;20.50;45.70;;;;;;5053606;28;20450;-61
2022/05/12 05:18:17;;;;;;;1.80;1.70;;;20.50;45.80;;;;;;5056468;28;20463;-61
2022/05/12 05:20:43;;;;;;;1.40;1.30;;;20.50;45.70;;;;;;5061569;28;20527;-62
2022/05/12 05:23:09;;;;;;;1.40;1.30;;;20.50;45.80;;;;;;5062209;28;20447;-63
2022/05/12 05:25:34;;;;;;;1.50;1.40;;;20.50;45.80;;;;;;5055291;28;20435;-62
2022/05/12 05:28:00;;;;;;;1.50;1.40;;;20.50;45.70;;;;;;5059574;28;20229;-64
2022/05/12 05:30:26;;;;;;;1.90;1.53;;;20.50;45.80;;;;;;5053741;28;20222;-63
2022/05/12 05:32:53;;;;;;;1.40;1.30;;;20.50;45.80;;;;;;5066365;28;20717;-61
2022/05/12 05:35:20;;;;;;;1.33;1.23;;;20.50;45.80;;;;;;5060045;28;20455;-61
2022/05/12 05:37:47;;;;;;;1.57;1.47;;;20.50;45.80;;;;;;5058617;28;20441;-62
2022/05/12 05:40:15;;;;;;;1.63;1.53;;;20.50;45.80;;;;;;5060005;28;20447;-61
2022/05/12 05:42:43;;;;;;;1.60;1.50;;;20.50;45.90;;;;;;5057625;28;20454;-61
2022/05/12 05:45:12;;;;;;;1.40;1.30;;;20.60;45.90;;;;;;5061919;28;20999;-62
2022/05/12 05:47:47;;;;;;;1.53;1.43;;;20.50;45.80;;;;;;5059372;28;20838;-61
2022/05/12 05:50:16;;;;;;;1.50;1.40;;;20.60;45.90;;;;;;5059929;28;20983;-61
2022/05/12 05:55:26;;;;;;;1.73;1.47;;;20.50;45.90;;;;;;5058818;28;20451;-61
2022/05/12 05:57:51;;;;;;;1.80;1.70;;;20.60;46.70;;;;;;5058792;28;20946;-61
2022/05/12 06:00:18;;;;;;;1.67;1.57;;;20.60;46.00;;;;;;5056806;28;20233;-60
2022/05/12 06:02:45;;;;;;;1.57;1.47;;;20.60;46.00;;;;;;5064509;28;20235;-61
2022/05/12 06:05:11;;;;;;;1.57;1.47;;;20.60;46.00;;;;;;5061082;28;20443;-61
2022/05/12 06:07:39;;;;;;;1.40;1.30;;;20.60;46.00;;;;;;5060045;28;20230;-62
2022/05/12 06:10:07;;;;;;;1.70;1.60;;;20.60;46.00;;;;;;5056912;28;20463;-62
2022/05/12 06:12:34;;;;;;;1.60;1.50;;;20.60;46.00;;;;;;5061191;28;20447;-61
2022/05/12 06:15:00;;;;;;;1.60;1.50;;;20.60;46.00;;;;;;5061545;28;20459;-60
2022/05/12 06:17:26;;;;;;;1.40;1.30;;;20.60;46.00;;;;;;5065352;28;20470;-61
2022/05/12 06:19:52;;;;;;;1.80;1.70;;;20.60;46.00;;;;;;5064488;28;20225;-61
2022/05/12 06:22:20;;;;;;;1.50;1.40;;;20.60;46.00;;;;;;5064457;28;20229;-61
2022/05/12 06:24:47;;;;;;;4.20;1.60;;;20.60;46.00;;;;;;5062916;28;20963;-60
2022/05/12 06:27:14;;;;;;;1.40;1.30;;;20.60;46.00;;;;;;5059766;28;20478;-61
2022/05/12 06:29:41;;;;;;;1.60;1.50;;;20.60;46.10;;;;;;5064336;28;20428;-60
2022/05/12 06:32:07;;;;;;;1.60;1.50;;;20.60;46.10;;;;;;5062980;28;20451;-61
2022/05/12 06:34:33;;;;;;;1.40;1.30;;;20.60;46.10;;;;;;5066663;28;20520;-61
2022/05/12 06:36:59;;;;;;;1.60;1.50;;;20.60;46.10;;;;;;5068920;28;20466;-61
2022/05/12 06:39:25;;;;;;;4.63;1.73;;;20.60;46.10;;;;;;5062009;28;20576;-61
2022/05/12 06:41:52;;;;;;;1.60;1.50;;;20.60;46.20;;;;;;5065066;28;20218;-61
2022/05/12 06:44:19;;;;;;;1.73;1.63;;;20.60;46.20;;;;;;5059520;28;20448;-61
2022/05/12 06:46:44;;;;;;;1.67;1.57;;;20.60;46.20;;;;;;5060266;28;20446;-61
2022/05/12 06:49:10;;;;;;;1.50;1.40;;;20.60;46.20;;;;;;5063325;28;20447;-60
2022/05/12 06:51:36;;;;;;;1.90;1.80;;;20.60;46.10;;;;;;5058894;28;20299;-61
2022/05/12 06:54:03;;;;;;;1.70;1.60;;;20.60;46.20;;;;;;5064081;28;20696;-61
2022/05/12 06:56:28;;;;;;;1.87;1.77;;;20.60;46.20;;;;;;5064424;28;20514;-61
2022/05/12 06:58:54;;;;;;;1.83;1.73;;;20.60;46.20;;;;;;5061806;28;21362;-61
2022/05/12 07:01:20;;;;;;;2.10;1.90;;;20.70;46.30;;;;;;5065019;28;20632;-60
2022/05/12 07:03:45;;;;;;;2.57;1.90;;;20.60;46.20;;;;;;5059490;28;20230;-62
2022/05/12 07:06:12;;;;;;;2.00;1.90;;;20.60;46.20;;;;;;5067941;28;20329;-62
2022/05/12 07:08:41;;;;;;;1.90;1.80;;;20.70;46.30;;;;;;5062348;28;20275;-61
2022/05/12 07:11:11;;;;;;;1.90;1.80;;;20.60;46.20;;;;;;5061643;28;20964;-62
2022/05/12 07:13:37;;;;;;;2.03;1.73;;;20.70;46.30;;;;;;5061723;28;20493;-61
2022/05/12 07:16:04;;;;;;;1.80;1.70;;;20.70;46.30;;;;;;5060012;28;20421;-61
2022/05/12 07:18:30;;;;;;;1.90;1.80;;;20.70;46.30;;;;;;5061800;28;20450;-61
2022/05/12 07:26:40;;;;;;;1.97;1.87;;;20.70;46.30;;;;;;5058575;28;20454;-61
2022/05/12 07:29:12;;;;;;;2.10;2.00;;;20.70;46.30;;;;;;5067031;28;20458;-61
2022/05/12 07:31:38;;;;;;;1.83;1.73;;;20.70;46.30;;;;;;5060799;28;20463;-60
2022/05/12 07:34:05;;;;;;;2.20;2.00;;;20.70;46.30;;;;;;5064675;28;20455;-59
2022/05/12 07:36:37;;;;;;;2.40;2.20;;;20.70;46.30;;;;;;5068274;28;20222;-60
2022/05/12 07:39:03;;;;;;;2.77;2.57;;;20.70;46.40;;;;;;5057996;28;20495;-60
2022/05/12 07:41:29;;;;;;;2.10;2.00;;;20.70;46.40;;;;;;5060016;28;21028;-59
2022/05/12 07:43:55;;;;;;;2.70;2.50;;;20.70;46.30;;;;;;5061443;28;20456;-59
2022/05/12 07:46:23;;;;;;;2.40;2.30;;;20.70;46.30;;;;;;5060361;28;20225;-61
2022/05/12 07:48:50;;;;;;;2.73;2.60;;;20.70;46.40;;;;;;5061298;28;20460;-59
2022/05/12 07:51:17;;;;;;;2.50;2.20;;;20.70;47.10;;;;;;5057305;28;22360;-60
2022/05/12 07:53:46;;;;;;;2.53;2.33;;;20.70;46.30;;;;;;5058855;28;20438;-60
2022/05/12 07:56:12;;;;;;;2.20;2.10;;;20.70;46.30;;;;;;5059150;28;20443;-59
2022/05/12 07:58:38;;;;;;;2.47;2.37;;;20.70;46.30;;;;;;5056119;28;20451;-59
2022/05/12 08:01:05;;;;;;;2.60;2.40;;;20.70;46.30;;;;;;5058248;28;20466;-59
2022/05/12 08:03:31;;;;;;;2.40;2.30;;;20.70;46.40;;;;;;5061179;28;20473;-59
2022/05/12 08:05:58;;;;;;;2.67;2.47;;;20.70;46.40;;;;;;5060368;28;20462;-59
2022/05/12 08:08:24;;;;;;;2.60;2.40;;;20.70;46.30;;;;;;5062641;28;20279;-59
2022/05/12 08:10:49;;;;;;;2.80;2.60;;;20.70;46.40;;;;;;5056936;28;20526;-59
2022/05/12 08:13:16;;;;;;;2.43;2.23;;;20.70;46.40;;;;;;5061213;28;20244;-60
2022/05/12 08:15:43;;;;;;;5.20;2.60;;;20.70;46.50;;;;;;5056852;28;20693;-59
2022/05/12 08:18:09;;;;;;;6.80;2.90;;;20.70;46.40;;;;;;5063157;28;20462;-59
2022/05/12 08:20:36;;;;;;;3.53;2.47;;;20.70;46.50;;;;;;5060493;28;20461;-60
2022/05/12 08:23:01;;;;;;;8.10;3.87;;;20.70;46.50;;;;;;5059919;28;20929;-60
2022/05/12 08:25:27;;;;;;;2.97;2.77;;;20.70;46.50;;;;;;5058773;28;20481;-60
2022/05/12 08:27:53;;;;;;;2.50;2.40;;;20.70;46.40;;;;;;5060324;28;20333;-59
2022/05/12 08:30:19;;;;;;;3.23;2.47;;;20.70;46.50;;;;;;5058976;28;20220;-60
2022/05/12 08:32:45;;;;;;;2.90;2.70;;;20.70;46.40;;;;;;5058299;28;20230;-59
2022/05/12 08:35:12;;;;;;;3.40;3.20;;;20.70;46.50;;;;;;5062239;28;20461;-60
2022/05/12 08:37:38;;;;;;;3.23;3.03;;;20.70;46.50;;;;;;5057771;28;20480;-60
2022/05/12 08:40:05;;;;;;;4.40;2.63;;;20.70;47.20;;;;;;5058088;28;20425;-60
2022/05/12 08:42:33;;;;;;;2.90;2.70;;;20.70;46.50;;;;;;5056228;28;20439;-60
2022/05/12 08:45:01;;;;;;;3.07;2.80;;;20.70;46.40;;;;;;5060345;28;20447;-59
2022/05/12 08:47:31;;;;;;;3.33;3.13;;;20.70;46.40;;;;;;5057187;28;20444;-60
2022/05/12 08:49:57;;;;;;;3.13;2.93;;;20.70;46.50;;;;;;5059118;28;20447;-59
2022/05/12 08:52:43;;;;;;;4.23;3.93;;;20.70;46.50;;;;;;5055854;28;20432;-60
2022/05/12 08:55:31;;;;;;;3.60;3.40;;;20.70;46.50;;;;;;5063635;28;20451;-59
2022/05/12 08:58:30;;;;;;;3.77;3.57;;;20.70;46.40;;;;;;5060720;28;20501;-60
2022/05/12 09:01:22;;;;;;;4.00;3.70;;;20.70;46.40;;;;;;5063145;28;20450;-60
2022/05/12 09:04:09;;;;;;;3.47;3.20;;;20.70;46.40;;;;;;5056704;28;20455;-60
2022/05/12 09:07:02;;;;;;;3.50;3.30;;;20.70;46.50;;;;;;5059816;28;20912;-59
2022/05/12 09:09:54;;;;;;;4.07;3.77;;;20.70;46.40;;;;;;5058698;28;20442;-59
2022/05/12 09:13:11;;;;;;;3.87;3.57;;;20.70;46.50;;;;;;5060179;28;20505;-60
2022/05/12 09:15:47;;;;;;;4.10;3.83;;;20.70;46.50;;;;;;4983546;28;20457;-58
2022/05/12 09:18:22;;;;;;;3.63;3.43;;;20.70;46.40;;;;;;5050027;28;20448;-59
2022/05/12 09:20:48;;;;;;;3.33;3.13;;;20.70;46.50;;;;;;5057722;28;20442;-59
2022/05/12 09:23:13;;;;;;;3.80;3.60;;;20.70;46.50;;;;;;5054243;28;20453;-60
2022/05/12 09:25:48;;;;;;;3.37;3.17;;;20.70;46.50;;;;;;5061016;28;20354;-60
2022/05/12 09:28:27;;;;;;;3.40;3.20;;;20.70;46.50;;;;;;5060698;28;20222;-60
2022/05/12 09:30:55;;;;;;;3.40;3.20;;;20.70;46.50;;;;;;5064030;28;20457;-60
2022/05/12 09:33:29;;;;;;;3.87;3.67;;;20.70;46.50;;;;;;5063026;28;20492;-60
2022/05/12 09:35:57;;;;;;;3.60;3.40;;;20.70;46.50;;;;;;5062098;28;20454;-59
2022/05/12 09:38:26;;;;;;;3.90;3.60;;;20.70;46.40;;;;;;5058433;28;20784;-59
2022/05/12 09:40:52;;;;;;;3.93;3.63;;;20.70;46.40;;;;;;5059256;28;20452;-60
2022/05/12 09:43:17;;;;;;;3.00;2.80;;;20.70;46.50;;;;;;5063075;28;20999;-59
2022/05/12 09:45:58;;;;;;;3.90;3.70;;;20.70;46.40;;;;;;5067738;28;20462;-60
2022/05/12 09:48:27;;;;;;;3.73;3.50;;;20.70;46.30;;;;;;5066658;28;20236;-59
2022/05/12 09:51:21;;;;;;;4.50;4.20;;;20.70;46.40;;;;;;5065398;28;20863;-60
2022/05/12 09:53:49;;;;;;;3.83;3.63;;;20.70;46.40;;;;;;5064943;28;20449;-59
2022/05/12 09:56:32;;;;;;;3.50;3.30;;;20.70;46.50;;;;;;5062525;28;20459;-60
2022/05/12 09:59:23;;;;;;;3.80;3.60;;;20.70;46.50;;;;;;5066287;28;20474;-59
2022/05/12 10:02:02;;;;;;;3.43;3.20;;;20.70;46.40;;;;;;5057298;28;21145;-60
2022/05/12 10:08:10;;;;;;;3.77;3.57;;;20.70;46.40;;;;;;5064882;28;20488;-59
2022/05/12 10:10:23;;;;;;;3.73;3.53;;;20.70;47.20;;;;;;5057725;28;20588;-59
2022/05/12 10:13:14;;;;;;;3.47;3.27;;;20.70;46.30;;;;;;5061893;28;20912;-59
2022/05/12 10:15:41;;;;;;;3.90;3.70;;;20.70;46.50;;;;;;5068545;28;20829;-59
2022/05/12 10:18:20;;;;;;;3.30;3.10;;;20.70;46.50;;;;;;5068891;28;20955;-59
2022/05/12 10:20:52;;;;;;;3.93;3.73;;;20.70;46.50;;;;;;5063288;28;20443;-59
2022/05/12 10:23:36;;;;;;;3.67;3.47;;;20.70;46.40;;;;;;5056630;28;20488;-60
2022/05/12 10:26:22;;;;;;;3.90;3.60;;;20.70;46.40;;;;;;5061068;28;20456;-59
2022/05/12 10:29:15;;;;;;;4.07;3.77;;;20.70;46.40;;;;;;5064042;28;20451;-59
2022/05/12 10:32:02;;;;;;;3.83;3.63;;;20.70;46.40;;;;;;5089723;28;20455;-61
2022/05/12 10:34:43;;;;;;;3.73;3.53;;;20.70;46.50;;;;;;5061131;28;20533;-59
2022/05/12 10:37:20;;;;;;;4.53;4.23;;;20.70;46.40;;;;;;5060725;28;20459;-59
2022/05/12 10:39:55;;;;;;;3.80;3.60;;;20.70;46.50;;;;;;5063509;28;20431;-59
2022/05/12 10:42:31;;;;;;;3.70;3.50;;;20.70;46.50;;;;;;5065103;28;20443;-59
2022/05/12 10:45:19;;;;;;;3.30;3.10;;;20.70;46.50;;;;;;5058168;28;20455;-59
2022/05/12 10:48:08;;;;;;;3.97;3.70;;;20.70;46.50;;;;;;5059342;28;20421;-58
2022/05/12 10:50:58;;;;;;;4.53;4.23;;;20.70;46.50;;;;;;5061530;28;20845;-59
2022/05/12 10:53:48;;;;;;;3.50;3.30;;;20.70;46.50;;;;;;5062895;28;20534;-58
2022/05/12 10:56:35;;;;;;;3.73;3.53;;;20.70;46.50;;;;;;5056016;28;20963;-59
2022/05/12 10:59:52;;;;;;;3.70;3.50;;;20.70;46.50;;;;;;5061675;28;20466;-59
2022/05/12 11:02:35;;;;;;;3.60;3.40;;;20.70;46.50;;;;;;5030443;28;20520;-59
2022/05/12 11:05:27;;;;;;;3.87;3.60;;;20.70;46.60;;;;;;5061583;28;20943;-59
2022/05/12 11:08:12;;;;;;;3.40;3.10;;;20.70;46.60;;;;;;5054804;28;20831;-59
2022/05/12 11:10:48;;;;;;;4.37;4.10;;;20.60;46.50;;;;;;5057594;28;20463;-59
2022/05/12 11:13:25;;;;;;;3.10;2.90;;;20.70;46.50;;;;;;5058363;28;20946;-59
2022/05/12 11:16:00;;;;;;;3.50;3.30;;;20.70;46.60;;;;;;5059967;28;20445;-58
2022/05/12 11:18:48;;;;;;;3.23;3.03;;;20.60;46.50;;;;;;5060325;28;20458;-60
2022/05/12 11:21:20;;;;;;;3.17;2.97;;;20.60;46.40;;;;;;5059425;28;21095;-59
2022/05/12 11:24:16;;;;;;;3.53;3.33;;;20.60;46.40;;;;;;5059965;28;20848;-58
2022/05/12 11:27:02;;;;;;;4.10;3.90;;;20.70;46.60;;;;;;5054833;28;20451;-60
2022/05/12 11:29:48;;;;;;;3.70;3.50;;;20.60;46.40;;;;;;5061865;28;20484;-59
2022/05/12 11:32:38;;;;;;;4.10;3.90;;;20.60;46.40;;;;;;5062318;28;20454;-60
2022/05/12 11:35:19;;;;;;;3.60;3.40;;;20.60;46.50;;;;;;5061886;28;20440;-59
2022/05/12 11:37:44;;;;;;;3.60;3.40;;;20.60;46.50;;;;;;5061570;28;20478;-59
2022/05/12 11:40:48;;;;;;;3.73;3.50;;;20.60;46.40;;;;;;5065981;28;20454;-59
2022/05/12 11:46:39;;;;;;;3.87;3.67;;;20.60;46.40;;;;;;5058681;28;20462;-59
2022/05/12 11:49:26;;;;;;;3.50;3.30;;;20.60;47.30;;;;;;5054876;28;20892;-58
2022/05/12 11:51:58;;;;;;;3.93;3.73;;;20.60;46.50;;;;;;5060266;28;20504;-59
2022/05/12 11:54:39;;;;;;;3.40;3.20;;;20.60;46.50;;;;;;5059885;28;20463;-58
2022/05/12 11:57:22;;;;;;;4.03;3.73;;;20.60;46.50;;;;;;5061088;28;20525;-59
2022/05/12 11:59:53;;;;;;;3.30;3.10;;;20.60;46.60;;;;;;5056221;28;20459;-59
2022/05/12 12:02:41;;;;;;;3.67;3.47;;;20.60;46.50;;;;;;5063095;28;20437;-59
2022/05/12 12:05:10;;;;;;;3.70;3.50;;;20.60;46.50;;;;;;5057700;28;20501;-59
2022/05/12 12:07:39;;;;;;;3.90;3.70;;;20.60;46.50;;;;;;5062551;28;20443;-59
2022/05/12 12:10:22;;;;;;;4.20;3.90;;;20.60;46.60;;;;;;5061679;28;20455;-58
2022/05/12 12:12:57;;;;;;;3.90;3.70;;;20.60;46.50;;;;;;5059513;28;20521;-59
2022/05/12 12:15:30;;;;;;;3.87;3.67;;;20.60;46.50;;;;;;5059425;28;20446;-59
2022/05/12 12:17:57;;;;;;;3.83;3.63;;;20.60;46.60;;;;;;5057848;28;20509;-58
2022/05/12 12:20:28;;;;;;;3.50;3.30;;;20.60;46.60;;;;;;5058304;28;20470;-59
2022/05/12 12:22:56;;;;;;;3.70;3.50;;;20.60;46.50;;;;;;5060288;28;20434;-59
2022/05/12 12:25:29;;;;;;;3.50;3.30;;;20.60;46.60;;;;;;5058439;28;20945;-59
2022/05/12 12:27:57;;;;;;;3.80;3.60;;;20.60;46.60;;;;;;5061309;28;20427;-60
2022/05/12 12:30:31;;;;;;;4.07;3.87;;;20.60;46.60;;;;;;5056264;28;20794;-59
2022/05/12 12:33:24;;;;;;;3.50;3.30;;;20.60;46.60;;;;;;5057577;28;20455;-59
2022/05/12 12:35:55;;;;;;;3.70;3.50;;;20.60;46.50;;;;;;5059329;28;20459;-59
2022/05/12 12:38:48;;;;;;;3.60;3.37;;;20.60;46.60;;;;;;5057560;28;20426;-59
2022/05/12 12:41:29;;;;;;;3.43;3.23;;;20.60;46.60;;;;;;5059490;28;20443;-58
2022/05/12 12:44:09;;;;;;;3.40;3.20;;;20.60;46.60;;;;;;5060399;28;20529;-60
2022/05/12 12:46:54;;;;;;;3.83;3.63;;;20.60;46.60;;;;;;5061148;28;20445;-58
2022/05/12 12:49:28;;;;;;;3.80;3.60;;;20.60;46.60;;;;;;5060193;28;20452;-59
2022/05/12 12:52:06;;;;;;;3.60;3.40;;;20.60;46.60;;;;;;5061487;28;20490;-59
2022/05/12 12:57:28;;;;;;;3.40;3.20;;;20.60;46.60;;;;;;5056655;28;20918;-59
2022/05/12 13:00:01;;;;;;;3.23;3.13;;;20.60;46.60;;;;;;5056681;28;20477;-59
2022/05/12 13:02:43;;;;;;;3.70;3.50;;;20.60;46.60;;;;;;5057070;28;20501;-59
2022/05/12 13:05:20;;;;;;;3.23;3.03;;;20.60;46.70;;;;;;5059262;28;20816;-60
2022/05/12 13:08:01;;;;;;;3.63;3.43;;;20.60;46.60;;;;;;5059038;28;20473;-62
2022/05/12 13:10:28;;;;;;;3.30;3.10;;;20.60;46.60;;;;;;5053033;28;20450;-62
2022/05/12 13:13:02;;;;;;;3.70;3.50;;;20.60;46.60;;;;;;5062634;28;20459;-60
2022/05/12 13:15:32;;;;;;;3.60;3.40;;;20.60;46.70;;;;;;5064362;28;20957;-59
2022/05/12 13:18:00;;;;;;;3.63;3.43;;;20.60;46.60;;;;;;5057182;28;20828;-60
2022/05/12 13:20:39;;;;;;;3.73;3.53;;;20.60;46.60;;;;;;5057771;28;20492;-60
2022/05/12 13:23:07;;;;;;;3.20;3.00;;;20.60;46.60;;;;;;5057513;28;20550;-59
2022/05/12 13:25:37;;;;;;;3.40;3.20;;;20.60;46.60;;;;;;5058458;28;20450;-60
2022/05/12 13:28:06;;;;;;;3.70;3.50;;;20.60;46.60;;;;;;5059986;28;20495;-58